Time;durP1;ratioP1;P1;durP2;ratioP2;P2;SDS_P1;SDS_P2;PMS_P1;PMS_P2;Temp;Humidity;BMP_temperature;BMP_pressure;BME280_temperature;BME280_humidity;BME280_pressure;Samples;Min_cycle;Max_cycle;Signal;HPM_P1;HPM_P2
2020/12/02 00:00:33;;;;;;;2.40;2.10;;;;;;;23.13;36.29;101981.56;5001866;28;104025;-59
2020/12/02 00:02:59;;;;;;;2.17;1.98;;;;;;;23.14;36.25;101975.34;4983180;28;105424;-59
2020/12/02 00:05:25;;;;;;;2.22;2.03;;;;;;;23.14;36.01;101982.47;4982757;28;97248;-59
2020/12/02 00:07:51;;;;;;;1.92;1.73;;;;;;;23.15;35.89;101982.41;4964305;28;111912;-59
2020/12/02 00:10:16;;;;;;;2.13;1.92;;;;;;;23.15;35.91;101985.06;4999484;28;96963;-59
2020/12/02 00:12:42;;;;;;;2.30;2.10;;;;;;;23.16;36.12;101988.63;4984543;28;103169;-59
2020/12/02 00:15:07;;;;;;;2.30;2.10;;;;;;;23.17;36.20;101993.03;4985965;28;127808;-59
2020/12/02 00:17:33;;;;;;;2.40;2.20;;;;;;;23.16;36.17;101986.84;4977371;28;112932;-59
2020/12/02 00:19:58;;;;;;;2.30;1.80;;;;;;;23.17;35.96;101991.25;4983618;28;112793;-59
2020/12/02 00:22:23;;;;;;;2.70;2.20;;;;;;;23.17;36.03;101985.94;4979840;28;126819;-59
2020/12/02 00:24:50;;;;;;;2.22;2.03;;;;;;;23.17;35.91;101988.59;5002305;28;126640;-59
2020/12/02 00:27:16;;;;;;;2.50;2.30;;;;;;;23.19;36.07;101985.88;4980887;28;96870;-59
2020/12/02 00:29:42;;;;;;;2.38;2.15;;;;;;;23.18;36.14;101990.34;4999829;28;96860;-59
2020/12/02 00:32:08;;;;;;;2.22;2.00;;;;;;;23.19;36.00;101988.53;4982692;28;98626;-59
2020/12/02 00:34:33;;;;;;;2.83;1.75;;;;;;;23.19;36.07;101984.13;4976965;28;100459;-59
2020/12/02 00:36:59;;;;;;;2.17;1.95;;;;;;;23.20;35.85;101990.31;4984148;28;97618;-59
2020/12/02 00:39:24;;;;;;;2.40;1.95;;;;;;;23.20;35.74;101992.97;5001568;28;96848;-59
2020/12/02 00:41:50;;;;;;;2.50;2.10;;;;;;;23.21;35.95;101989.41;4979001;28;123090;-61
2020/12/02 00:44:16;;;;;;;2.30;2.08;;;;;;;23.22;35.92;101995.59;5005133;28;117472;-61
2020/12/02 00:46:48;;;;;;;2.45;2.10;;;;;;;23.21;35.57;101984.09;4964727;28;97211;-61
2020/12/02 00:49:14;;;;;;;2.42;2.20;;;;;;;23.21;35.63;101981.44;5005989;28;97009;-61
2020/12/02 00:51:40;;;;;;;2.72;2.40;;;;;;;23.23;35.86;101984.06;4981715;28;97536;-61
2020/12/02 00:54:06;;;;;;;2.58;2.22;;;;;;;23.24;35.96;101985.78;4991814;28;125267;-61
2020/12/02 00:56:32;;;;;;;2.35;2.15;;;;;;;23.24;35.95;101981.34;4988763;28;96862;-61
2020/12/02 00:59:01;;;;;;;2.50;2.30;;;;;;;23.25;35.85;101979.56;4964746;28;96999;-60
2020/12/02 01:02:22;;;;;;;2.38;2.17;;;;;;;23.23;35.55;101971.63;4996026;28;122346;-61
2020/12/02 01:04:48;;;;;;;2.42;2.22;;;;;;;23.26;35.56;101965.34;4919847;28;97163;-61
2020/12/02 01:07:16;;;;;;;2.22;2.03;;;;;;;23.26;35.78;101968.00;4956753;28;113130;-61
2020/12/02 01:09:42;;;;;;;2.58;2.38;;;;;;;23.26;35.41;101965.34;4982377;28;97343;-61
2020/12/02 01:12:11;;;;;;;2.40;2.03;;;;;;;23.26;35.43;101957.34;4980125;28;97587;-61
2020/12/02 01:14:37;;;;;;;2.35;2.10;;;;;;;23.26;35.78;101960.00;4960391;28;125843;-61
2020/12/02 01:17:02;;;;;;;2.72;2.35;;;;;;;23.26;35.60;101952.94;4977820;28;112756;-61
2020/12/02 01:19:30;;;;;;;2.40;2.17;;;;;;;23.27;35.49;101964.44;4984045;28;111609;-61
2020/12/02 01:21:59;;;;;;;2.60;2.40;;;;;;;23.26;35.31;101952.03;4980771;28;100094;-61
2020/12/02 01:24:36;;;;;;;2.30;2.10;;;;;;;23.25;35.41;101958.28;4995528;28;97285;-61
2020/12/02 01:27:06;;;;;;;2.70;2.22;;;;;;;23.26;35.59;101958.25;4960834;28;96769;-61
2020/12/02 01:29:32;;;;;;;2.42;2.22;;;;;;;23.26;35.52;101963.56;4977620;28;96960;-61
2020/12/02 01:31:57;;;;;;;2.42;2.17;;;;;;;23.26;35.16;101952.94;4979176;28;126767;-61
2020/12/02 01:34:23;;;;;;;2.40;2.20;;;;;;;23.27;35.41;101952.00;4978744;28;97213;-61
2020/12/02 01:37:16;;;;;;;2.35;2.15;;;;;;;23.25;35.50;101953.81;4980437;28;97005;-61
2020/12/02 01:39:45;;;;;;;2.83;2.07;;;;;;;23.27;35.63;101957.31;4982849;28;96756;-61
2020/12/02 01:42:12;;;;;;;3.55;2.63;;;;;;;23.27;35.53;101959.13;4962050;28;97327;-61
2020/12/02 01:44:38;;;;;;;2.45;2.25;;;;;;;23.28;35.51;101964.41;4992961;28;97264;-61
2020/12/02 01:47:07;;;;;;;2.40;2.20;;;;;;;23.28;35.42;101955.53;4974718;28;105305;-61
2020/12/02 01:50:00;;;;;;;2.33;2.13;;;;;;;23.28;35.17;101952.84;4981582;28;97259;-61
2020/12/02 01:52:51;;;;;;;3.25;2.35;;;;;;;23.28;35.35;101964.41;4978869;28;107689;-61
2020/12/02 01:55:23;;;;;;;2.50;2.30;;;;;;;23.29;35.52;101958.16;4963481;28;121758;-61
2020/12/02 01:57:51;;;;;;;2.42;2.22;;;;;;;23.29;35.07;101965.28;4977907;28;97420;-61
2020/12/02 02:00:20;;;;;;;2.50;2.30;;;;;;;23.30;35.08;101964.38;4983325;28;96747;-61
2020/12/02 02:03:11;;;;;;;2.15;1.95;;;;;;;23.27;35.48;101970.63;4993174;28;97413;-61
2020/12/02 02:06:18;;;;;;;3.13;2.42;;;;;;;23.27;35.16;101973.28;4980411;28;97193;-61
2020/12/02 02:08:43;;;;;;;2.83;2.30;;;;;;;23.28;35.13;101969.72;4980729;28;111814;-62
2020/12/02 02:11:14;;;;;;;2.65;2.30;;;;;;;23.28;35.32;101963.50;4979882;28;112108;-61
2020/12/02 02:14:07;;;;;;;2.50;2.30;;;;;;;23.28;35.41;101975.06;4975897;28;99464;-61
2020/12/02 02:16:37;;;;;;;2.22;2.03;;;;;;;23.29;35.01;101971.47;4980835;28;97299;-61
2020/12/02 02:19:03;;;;;;;2.30;2.10;;;;;;;23.28;35.13;101969.72;4976165;28;96717;-61
2020/12/02 02:21:30;;;;;;;2.67;2.47;;;;;;;23.29;35.16;101965.28;4981664;28;111830;-61
2020/12/02 02:23:56;;;;;;;2.63;2.40;;;;;;;23.29;35.22;101965.28;4979690;28;97350;-61
2020/12/02 02:26:24;;;;;;;2.60;2.40;;;;;;;23.29;35.28;101966.13;4981712;28;122327;-62
2020/12/02 02:29:14;;;;;;;2.20;2.00;;;;;;;23.31;35.00;101963.44;4981252;28;98482;-61
2020/12/02 02:31:59;;;;;;;2.20;2.00;;;;;;;23.31;35.01;101960.78;4982363;28;96939;-61
2020/12/02 02:34:25;;;;;;;2.40;2.20;;;;;;;23.31;35.01;101958.13;4982305;28;97316;-61
2020/12/02 02:36:52;;;;;;;2.25;2.05;;;;;;;23.30;35.02;101959.91;4977212;28;127159;-61
2020/12/02 02:39:17;;;;;;;2.30;2.10;;;;;;;23.31;34.96;101953.66;4981604;28;96993;-61
2020/12/02 02:41:42;;;;;;;2.60;2.40;;;;;;;23.31;34.94;101948.34;4995334;28;111721;-62
2020/12/02 02:44:09;;;;;;;2.75;2.55;;;;;;;23.32;35.05;101946.56;4983137;28;126976;-61
2020/12/02 02:46:35;;;;;;;2.40;2.20;;;;;;;23.33;34.92;101950.97;4980278;28;97166;-61
2020/12/02 02:49:01;;;;;;;2.53;2.33;;;;;;;23.34;35.02;101950.06;4979443;28;112910;-61
2020/12/02 02:51:26;;;;;;;2.50;2.30;;;;;;;23.34;35.27;101948.28;4983824;28;98186;-61
2020/12/02 02:53:51;;;;;;;2.20;2.00;;;;;;;23.35;34.94;101943.81;4985902;28;97589;-61
2020/12/02 02:56:17;;;;;;;2.58;2.38;;;;;;;23.35;34.93;101952.72;4978314;28;126557;-61
2020/12/02 02:58:42;;;;;;;2.45;2.25;;;;;;;23.35;34.81;101951.81;4986424;28;96750;-61
2020/12/02 03:01:08;;;;;;;2.20;2.00;;;;;;;23.36;34.86;101951.78;4978703;28;112103;-61
2020/12/02 03:03:33;;;;;;;2.28;2.08;;;;;;;23.36;35.17;101948.25;4977829;28;97403;-62
2020/12/02 03:06:00;;;;;;;2.80;2.60;;;;;;;23.36;35.10;101946.44;4993443;28;124340;-62
2020/12/02 03:08:25;;;;;;;2.72;2.53;;;;;;;23.35;35.35;101934.06;4991557;28;96838;-62
2020/12/02 03:10:51;;;;;;;2.85;2.65;;;;;;;23.36;35.04;101938.47;4979825;28;97112;-62
2020/12/02 03:13:27;;;;;;;2.60;2.40;;;;;;;23.35;34.99;101947.38;4977877;28;125143;-62
2020/12/02 03:15:53;;;;;;;2.50;2.30;;;;;;;23.37;34.85;101945.56;4996304;28;97266;-62
2020/12/02 03:18:19;;;;;;;2.60;2.40;;;;;;;23.37;34.93;101947.34;4980434;28;96749;-62
2020/12/02 03:20:51;;;;;;;2.47;2.28;;;;;;;23.35;35.05;101944.72;4961301;28;112392;-62
2020/12/02 03:23:16;;;;;;;2.58;2.20;;;;;;;23.37;35.05;101958.00;4978410;28;97503;-61
2020/12/02 03:25:43;;;;;;;2.30;2.10;;;;;;;23.37;34.93;101956.19;4996250;28;127341;-61
2020/12/02 03:28:08;;;;;;;2.30;2.10;;;;;;;23.37;34.94;101950.00;4995551;28;97349;-61
2020/12/02 03:30:34;;;;;;;2.25;2.05;;;;;;;23.36;34.82;101950.91;4975448;28;97019;-62
2020/12/02 03:32:59;;;;;;;2.67;2.47;;;;;;;23.37;34.66;101945.56;4977118;28;99505;-61
2020/12/02 03:35:26;;;;;;;2.40;2.20;;;;;;;23.37;34.72;101942.03;4972777;28;125182;-61
2020/12/02 03:37:52;;;;;;;2.63;2.42;;;;;;;23.38;34.74;101949.94;4995404;28;96720;-62
2020/12/02 03:40:18;;;;;;;2.63;2.42;;;;;;;23.39;34.66;101942.84;4995199;28;96809;-62
2020/12/02 03:42:43;;;;;;;2.47;2.25;;;;;;;;;;4973963;28;126955;-61
2020/12/02 03:45:09;;;;;;;2.47;2.28;;;;;;;23.37;34.84;101934.03;4998299;28;97223;-62
2020/12/02 03:47:35;;;;;;;2.63;2.30;;;;;;;23.39;35.02;101929.53;4959237;28;97242;-62
2020/12/02 03:50:01;;;;;;;2.75;2.55;;;;;;;23.40;34.69;101930.41;4982461;28;96737;-61
2020/12/02 03:52:26;;;;;;;2.33;2.13;;;;;;;23.38;34.78;101920.66;4975888;28;127375;-62
2020/12/02 03:54:52;;;;;;;2.63;2.30;;;;;;;23.40;34.51;101927.75;4983123;28;97418;-62
2020/12/02 03:57:17;;;;;;;2.13;1.90;;;;;;;23.38;34.83;101926.00;4983370;28;96750;-62
2020/12/02 03:59:42;;;;;;;2.50;2.30;;;;;;;23.40;34.76;101925.09;5000205;28;111745;-61
2020/12/02 04:02:08;;;;;;;2.60;2.40;;;;;;;23.40;34.64;101922.44;4991252;28;126708;-61
2020/12/02 04:04:33;;;;;;;2.80;2.60;;;;;;;23.41;34.45;101927.72;4979748;28;126749;-61
2020/12/02 04:06:59;;;;;;;2.30;2.10;;;;;;;23.41;34.54;101929.50;4991989;28;103333;-61
2020/12/02 04:09:24;;;;;;;2.75;2.50;;;;;;;23.41;34.50;101927.72;4976721;28;103395;-62
2020/12/02 04:11:50;;;;;;;2.88;2.28;;;;;;;23.42;34.71;101932.13;4991495;28;124728;-61
2020/12/02 04:14:15;;;;;;;2.88;2.35;;;;;;;23.42;34.85;101924.13;4976498;28;126900;-61
2020/12/02 04:16:41;;;;;;;2.60;2.40;;;;;;;23.42;34.65;101923.25;4959941;28;111685;-61
2020/12/02 04:19:06;;;;;;;2.40;2.20;;;;;;;23.42;34.37;101916.13;4979782;28;110175;-61
2020/12/02 04:21:32;;;;;;;2.25;2.05;;;;;;;23.42;34.75;101916.13;4977788;28;126580;-62
2020/12/02 04:23:57;;;;;;;2.58;2.38;;;;;;;23.42;34.40;101912.59;4976104;28;121654;-62
2020/12/02 04:26:23;;;;;;;2.45;2.25;;;;;;;23.42;34.64;101913.47;4964395;28;97243;-61
2020/12/02 04:28:49;;;;;;;2.40;2.20;;;;;;;23.43;34.30;101919.69;4978137;28;113109;-61
2020/12/02 04:31:14;;;;;;;2.72;2.25;;;;;;;23.42;34.44;101923.25;4992815;28;126820;-61
2020/12/02 04:33:40;;;;;;;2.53;2.33;;;;;;;23.42;34.31;101913.47;4990468;28;113289;-61
2020/12/02 04:36:07;;;;;;;2.50;2.30;;;;;;;23.43;34.47;101925.03;4975189;28;96852;-61
2020/12/02 04:38:32;;;;;;;2.72;2.20;;;;;;;23.42;34.53;101916.13;4975463;28;96915;-61
2020/12/02 04:40:58;;;;;;;2.60;2.40;;;;;;;23.42;34.64;101918.81;4997023;28;127113;-61
2020/12/02 04:43:32;;;;;;;2.22;1.90;;;;;;;23.41;34.35;101917.06;4958358;28;124616;-61
2020/12/02 04:45:57;;;;;;;3.00;2.70;;;;;;;23.42;34.50;101905.50;4961372;28;97238;-62
2020/12/02 04:48:26;;;;;;;2.28;2.08;;;;;;;23.42;34.45;101913.47;5001294;28;96963;-61
2020/12/02 04:50:56;;;;;;;3.15;2.85;;;;;;;23.42;34.40;101905.50;4963367;28;119173;-62
2020/12/02 04:53:23;;;;;;;2.40;2.20;;;;;;;23.43;34.31;101895.75;4979770;28;126228;-62
2020/12/02 04:55:51;;;;;;;3.30;2.50;;;;;;;23.43;34.20;101901.06;4993469;28;98196;-61
2020/12/02 04:58:25;;;;;;;2.60;2.40;;;;;;;23.42;34.31;101897.50;4979778;28;96968;-61
2020/12/02 05:00:50;;;;;;;2.75;2.47;;;;;;;23.43;34.39;101896.59;4979336;28;97599;-61
2020/12/02 05:03:16;;;;;;;2.72;2.25;;;;;;;23.42;34.59;101900.16;4997206;28;126484;-61
2020/12/02 05:05:42;;;;;;;2.67;2.30;;;;;;;23.43;34.43;101893.94;4979973;28;107166;-61
2020/12/02 05:08:30;;;;;;;2.58;2.08;;;;;;;23.42;34.40;101891.31;4998889;28;96917;-61
2020/12/02 05:10:55;;;;;;;2.80;2.50;;;;;;;23.44;34.33;101886.81;4990760;28;121550;-61
2020/12/02 05:13:21;;;;;;;2.40;2.20;;;;;;;23.44;34.51;101885.06;4983306;28;97178;-61
2020/12/02 05:15:47;;;;;;;2.60;2.30;;;;;;;23.44;34.34;101881.50;4980520;28;97270;-62
2020/12/02 05:18:18;;;;;;;2.40;2.20;;;;;;;23.44;34.23;101878.84;4995334;28;106880;-62
2020/12/02 05:20:45;;;;;;;2.80;2.60;;;;;;;23.44;34.20;101878.84;4984057;28;123539;-61
2020/12/02 05:23:11;;;;;;;2.50;2.10;;;;;;;23.44;34.49;101879.72;4959392;28;97227;-61
2020/12/02 05:25:36;;;;;;;2.20;2.00;;;;;;;23.44;34.23;101884.16;4984559;28;96751;-62
2020/12/02 05:28:23;;;;;;;2.63;2.42;;;;;;;23.42;34.51;101884.19;4993780;28;111865;-62
2020/12/02 05:30:49;;;;;;;2.65;2.45;;;;;;;23.44;34.45;101889.47;4998339;28;101874;-61
2020/12/02 05:33:17;;;;;;;2.20;2.00;;;;;;;23.43;34.25;101883.28;4977600;28;126937;-62
2020/12/02 05:35:51;;;;;;;2.53;2.22;;;;;;;23.43;34.18;101883.28;4997566;28;96882;-61
2020/12/02 05:38:25;;;;;;;2.22;2.03;;;;;;;23.43;34.25;101887.75;4978628;28;97346;-61
2020/12/02 05:40:50;;;;;;;;;;;;;;;23.43;34.57;101885.94;4994715;28;97503;-62
2020/12/02 05:43:27;;;;;;;2.10;1.90;;;;;;;23.45;34.59;101881.47;4981828;28;97223;-62
2020/12/02 05:45:53;;;;;;;2.60;2.40;;;;;;;23.45;34.55;101880.59;4968968;28;98235;-62
2020/12/02 05:48:25;;;;;;;2.50;2.30;;;;;;;23.43;34.32;101883.28;4985652;28;111705;-61
2020/12/02 05:50:52;;;;;;;2.73;2.53;;;;;;;23.44;34.38;101881.50;4977581;28;125789;-61
2020/12/02 05:53:23;;;;;;;2.28;2.03;;;;;;;23.44;34.26;101886.81;4979602;28;97351;-61
2020/12/02 05:55:48;;;;;;;2.38;2.17;;;;;;;23.44;34.21;101886.81;4995352;28;96798;-62
2020/12/02 05:58:17;;;;;;;2.45;2.25;;;;;;;23.45;34.02;101888.59;4996473;28;111839;-61
2020/12/02 06:00:42;;;;;;;2.13;1.92;;;;;;;23.44;34.23;101887.72;4979627;28;126917;-61
2020/12/02 06:03:12;;;;;;;2.17;1.98;;;;;;;23.44;34.43;101885.06;4961798;28;111659;-61
2020/12/02 06:05:37;;;;;;;2.45;2.00;;;;;;;23.45;34.42;101876.13;4975190;28;96689;-61
2020/12/02 06:08:05;;;;;;;2.40;2.20;;;;;;;23.45;34.35;101881.47;4995882;28;102178;-61
2020/12/02 06:10:53;;;;;;;2.28;1.90;;;;;;;23.43;33.98;101877.97;4997199;28;97446;-61
2020/12/02 06:13:39;;;;;;;2.78;2.10;;;;;;;23.45;34.13;101869.94;4951153;28;97124;-61
2020/12/02 06:16:04;;;;;;;2.20;1.92;;;;;;;23.46;34.12;101872.56;4975600;28;96981;-61
2020/12/02 06:18:38;;;;;;;2.25;2.05;;;;;;;23.47;34.46;101870.78;4980214;28;97671;-61
2020/12/02 06:21:04;;;;;;;2.00;1.80;;;;;;;23.46;34.35;101869.91;4974568;28;121195;-61
2020/12/02 06:23:51;;;;;;;2.03;1.83;;;;;;;23.45;34.39;101865.47;4991371;28;127232;-61
2020/12/02 06:26:42;;;;;;;2.22;1.90;;;;;;;23.46;34.42;101863.69;4978319;28;96770;-61
2020/12/02 06:29:25;;;;;;;2.00;1.80;;;;;;;23.47;33.91;101857.47;4981949;28;97049;-61
2020/12/02 06:31:59;;;;;;;2.27;2.07;;;;;;;23.47;34.06;101853.00;4993452;28;97623;-61
2020/12/02 06:34:27;;;;;;;2.00;1.80;;;;;;;23.48;34.23;101854.75;4977322;28;97291;-62
2020/12/02 06:37:14;;;;;;;2.20;2.00;;;;;;;23.46;34.06;101855.69;4992504;28;96814;-61
2020/12/02 06:39:42;;;;;;;1.95;1.80;;;;;;;23.47;34.01;101855.66;4978464;28;96851;-62
2020/12/02 06:42:27;;;;;;;2.28;2.08;;;;;;;23.44;34.29;101852.22;4996819;28;97533;-61
2020/12/02 06:45:24;;;;;;;2.30;2.00;;;;;;;23.44;34.06;101858.44;4993463;28;97335;-62
2020/12/02 06:47:49;;;;;;;2.20;2.00;;;;;;;23.44;34.00;101853.09;4976855;28;96784;-62
2020/12/02 06:50:15;;;;;;;2.00;1.60;;;;;;;23.45;34.14;101848.66;4997906;28;97286;-62
2020/12/02 06:52:40;;;;;;;2.50;2.10;;;;;;;23.45;34.24;101851.31;4992426;28;126786;-62
2020/12/02 06:55:13;;;;;;;2.20;2.00;;;;;;;23.44;34.20;101849.53;4975854;28;127134;-62
2020/12/02 06:57:39;;;;;;;2.25;2.05;;;;;;;23.45;33.96;101848.66;4994460;28;97490;-61
2020/12/02 07:00:07;;;;;;;2.20;2.00;;;;;;;23.45;34.13;101846.84;4978955;28;112541;-61
2020/12/02 07:02:36;;;;;;;1.77;1.67;;;;;;;23.45;34.13;101846.84;4987214;28;97415;-62
2020/12/02 07:05:06;;;;;;;2.50;2.30;;;;;;;23.45;34.06;101841.53;4994097;28;97018;-62
2020/12/02 07:07:32;;;;;;;2.33;2.13;;;;;;;23.46;34.16;101853.03;4945754;28;97410;-61
2020/12/02 07:09:57;;;;;;;10.23;2.13;;;;;;;23.45;34.24;101840.66;4995503;28;96819;-61
2020/12/02 07:12:23;;;;;;;3.15;2.33;;;;;;;23.46;34.07;101834.41;4978798;28;127301;-61
2020/12/02 07:14:48;;;;;;;4.68;2.42;;;;;;;23.48;34.16;101835.25;4979541;28;126580;-61
2020/12/02 07:17:14;;;;;;;5.47;2.10;;;;;;;23.48;34.31;101829.94;4979909;28;96960;-61
2020/12/02 07:19:45;;;;;;;4.07;2.20;;;;;;;23.49;34.08;101843.19;4979664;28;97353;-66
2020/12/02 07:22:27;;;;;;;5.97;2.72;;;;;;;23.47;33.91;101838.81;4994058;28;98229;-64
2020/12/02 07:24:55;;;;;;;5.22;2.83;;;;;;;23.45;33.98;101841.53;4975832;28;99113;-65
2020/12/02 07:27:21;;;;;;;5.32;2.60;;;;;;;23.43;33.66;101838.03;4983746;28;97138;-65
2020/12/02 07:29:58;;;;;;;3.78;2.55;;;;;;;23.42;33.67;101846.91;4993075;28;96796;-64
2020/12/02 07:32:23;;;;;;;3.65;2.70;;;;;;;23.43;33.87;101839.81;4992818;28;115670;-64
2020/12/02 07:34:49;;;;;;;4.13;2.53;;;;;;;23.43;33.67;101842.50;4983349;28;100277;-64
2020/12/02 07:37:16;;;;;;;5.82;2.72;;;;;;;23.43;33.93;101846.03;4993621;28;97106;-64
2020/12/02 07:39:55;;;;;;;3.13;2.50;;;;;;;23.44;33.58;101846.88;4977883;28;97084;-64
2020/12/02 07:42:22;;;;;;;3.80;2.63;;;;;;;23.44;33.67;101836.22;4987319;28;98627;-65
2020/12/02 07:45:14;;;;;;;3.55;2.45;;;;;;;23.41;33.87;101849.66;4943172;28;98251;-64
2020/12/02 07:47:40;;;;;;;3.20;2.33;;;;;;;23.44;33.74;101850.44;4977000;28;96881;-64
2020/12/02 07:50:24;;;;;;;3.58;2.15;;;;;;;23.44;33.67;101844.22;4970478;28;108095;-64
2020/12/02 07:52:50;;;;;;;3.38;2.17;;;;;;;23.43;33.83;101846.03;4989734;28;100288;-64
2020/12/02 07:55:18;;;;;;;6.13;2.25;;;;;;;23.44;33.79;101852.22;4956394;28;127500;-65
2020/12/02 07:57:43;;;;;;;4.38;2.50;;;;;;;23.43;33.93;101850.47;4980123;28;96765;-64
2020/12/02 08:00:38;;;;;;;5.03;2.67;;;;;;;23.41;33.59;101850.50;4959955;28;110624;-65
2020/12/02 08:03:04;;;;;;;5.53;4.18;;;;;;;23.41;33.31;101849.66;4967749;28;121337;-64
2020/12/02 08:05:50;;;;;;;3.65;3.00;;;;;;;23.30;33.65;101842.78;4994388;28;97255;-64
2020/12/02 08:08:15;;;;;;;4.78;3.83;;;;;;;23.31;33.33;101841.00;4993755;28;97073;-64
2020/12/02 08:10:40;;;;;;;5.53;3.43;;;;;;;23.29;33.53;101841.03;4978186;28;102199;-64
2020/12/02 08:13:34;;;;;;;7.15;3.08;;;;;;;23.26;33.30;101838.47;4993312;28;126906;-64
2020/12/02 08:16:00;;;;;;;4.03;3.63;;;;;;;23.30;33.28;101832.16;4975422;28;97271;-64
2020/12/02 08:18:30;;;;;;;4.40;2.80;;;;;;;23.31;33.27;101841.00;4960531;28;96697;-64
2020/12/02 08:21:12;;;;;;;3.28;2.97;;;;;;;23.30;33.37;101828.63;4976119;28;110361;-64
2020/12/02 08:23:37;;;;;;;3.42;2.50;;;;;;;23.32;33.60;101838.31;4991184;28;97646;-64
2020/12/02 08:26:16;;;;;;;3.78;2.60;;;;;;;23.32;33.38;101832.13;4963162;28;119340;-64
2020/12/02 08:28:42;;;;;;;3.60;2.80;;;;;;;23.33;33.33;101829.41;4997010;28;96927;-64
2020/12/02 08:31:17;;;;;;;2.65;2.42;;;;;;;23.32;33.24;101825.00;4976992;28;97162;-64
2020/12/02 08:34:12;;;;;;;3.10;2.65;;;;;;;23.32;33.60;101817.00;5008611;28;97943;-64
2020/12/02 08:36:39;;;;;;;4.00;2.25;;;;;;;23.35;33.41;101816.94;4986467;28;97743;-65
2020/12/02 08:39:05;;;;;;;2.58;2.25;;;;;;;23.35;33.26;101816.94;4996823;28;96701;-64
2020/12/02 08:41:38;;;;;;;3.35;2.60;;;;;;;23.35;33.09;101811.63;4998517;28;97121;-64
2020/12/02 08:44:09;;;;;;;2.83;2.55;;;;;;;23.35;33.53;101808.94;4996676;28;97696;-64
2020/12/02 08:46:45;;;;;;;2.70;2.17;;;;;;;23.35;33.13;101808.94;4998219;28;97249;-65
2020/12/02 08:49:10;;;;;;;4.35;2.33;;;;;;;23.37;33.52;101808.91;4964190;28;96800;-65
2020/12/02 08:51:36;;;;;;;2.60;2.40;;;;;;;23.37;33.44;101803.59;4978509;28;111747;-65
2020/12/02 08:54:09;;;;;;;2.42;2.10;;;;;;;23.37;33.06;101799.13;4979391;28;101594;-64
2020/12/02 08:59:09;;;;;;;2.70;2.20;;;;;;;;;;4997291;28;98388;-63
2020/12/02 09:01:34;;;;;;;2.35;2.08;;;;;;;23.39;33.32;101788.44;4968042;28;96712;-62
2020/12/02 09:04:00;;;;;;;2.72;2.25;;;;;;;23.38;33.39;101784.88;4987206;28;127248;-63
2020/12/02 09:06:25;;;;;;;2.70;2.50;;;;;;;23.39;33.25;101788.44;4995035;28;126841;-62
2020/12/02 09:08:51;;;;;;;2.75;2.30;;;;;;;23.39;33.33;101785.78;4997081;28;112232;-62
2020/12/02 09:11:25;;;;;;;3.00;2.33;;;;;;;23.40;33.44;101778.66;4969660;28;96804;-63
2020/12/02 09:13:51;;;;;;;2.45;2.08;;;;;;;23.40;33.05;101776.00;4990655;28;97512;-62
2020/12/02 09:16:25;;;;;;;3.33;2.22;;;;;;;23.40;33.07;101781.31;4995647;28;96842;-63
2020/12/02 09:18:51;;;;;;;2.53;2.30;;;;;;;23.40;33.08;101774.19;4983810;28;97173;-63
2020/12/02 09:21:17;;;;;;;3.50;2.28;;;;;;;23.40;33.12;101776.88;4998486;28;96691;-63
2020/12/02 09:23:43;;;;;;;2.53;2.33;;;;;;;23.41;33.31;101767.97;4963180;28;99551;-62
2020/12/02 09:26:08;;;;;;;3.33;2.38;;;;;;;23.42;33.20;101779.50;4996229;28;97364;-62
2020/12/02 09:28:34;;;;;;;3.70;2.40;;;;;;;23.42;33.31;101776.81;4979072;28;96688;-63
2020/12/02 09:31:00;;;;;;;3.80;2.60;;;;;;;23.42;32.61;101766.19;4975953;28;96920;-63
2020/12/02 09:33:25;;;;;;;3.72;2.50;;;;;;;23.42;33.01;101760.84;4981150;28;101391;-63
2020/12/02 09:35:51;;;;;;;3.95;2.95;;;;;;;23.42;33.07;101761.72;4998404;28;118541;-63
2020/12/02 09:38:17;;;;;;;2.50;2.20;;;;;;;23.42;32.88;101759.06;4998217;28;96640;-62
2020/12/02 09:40:43;;;;;;;3.47;2.55;;;;;;;23.43;33.00;101760.81;4997659;28;97044;-62
2020/12/02 09:43:41;;;;;;;3.03;2.50;;;;;;;23.40;33.06;101755.56;5012435;28;97101;-63
2020/12/02 09:46:11;;;;;;;2.75;2.53;;;;;;;23.43;33.04;101759.97;4996306;28;97241;-63
2020/12/02 09:48:37;;;;;;;3.03;2.47;;;;;;;23.42;32.98;101748.41;4996556;28;97137;-62
2020/12/02 09:51:10;;;;;;;4.78;2.88;;;;;;;23.42;33.31;101744.88;4994945;28;114736;-63
2020/12/02 09:53:35;;;;;;;4.97;2.60;;;;;;;23.43;33.00;101749.31;4979010;28;97380;-63
2020/12/02 09:56:01;;;;;;;3.33;3.03;;;;;;;23.43;33.22;101746.66;5009308;28;99045;-63
2020/12/02 09:58:26;;;;;;;2.78;2.13;;;;;;;23.43;33.04;101749.31;4979920;28;112806;-63
2020/12/02 10:00:55;;;;;;;3.10;2.80;;;;;;;23.43;32.83;101746.66;4998789;28;96729;-62
2020/12/02 10:03:47;;;;;;;3.83;2.72;;;;;;;23.42;33.11;101742.22;4972069;28;97736;-62
2020/12/02 10:06:48;;;;;;;2.60;2.08;;;;;;;23.41;32.97;101735.16;4987210;28;99602;-62
2020/12/02 10:09:32;;;;;;;2.75;2.50;;;;;;;23.40;32.95;101728.94;4982785;28;96939;-63
2020/12/02 10:12:16;;;;;;;3.28;2.88;;;;;;;23.40;32.95;101730.75;4981949;28;97139;-63
2020/12/02 10:15:00;;;;;;;2.90;2.40;;;;;;;23.37;33.31;101718.41;5012618;28;96753;-63
2020/12/02 10:17:53;;;;;;;3.08;2.33;;;;;;;23.37;33.12;101721.94;5010616;28;97435;-62
2020/12/02 10:20:25;;;;;;;3.25;2.78;;;;;;;23.40;32.91;101720.09;5006805;28;96755;-64
2020/12/02 10:23:13;;;;;;;2.83;2.50;;;;;;;23.38;32.92;101721.00;5012203;28;96790;-62
2020/12/02 10:26:09;;;;;;;3.10;2.50;;;;;;;23.35;32.99;101710.44;4996938;28;97737;-63
2020/12/02 10:29:00;;;;;;;2.88;2.58;;;;;;;23.36;33.08;101712.19;4995545;28;99642;-63
2020/12/02 10:31:51;;;;;;;3.10;2.80;;;;;;;23.35;33.25;101706.91;5000655;28;97065;-63
2020/12/02 10:34:29;;;;;;;2.90;2.60;;;;;;;23.36;33.22;101695.34;4992239;28;97061;-63
2020/12/02 10:36:57;;;;;;;2.80;2.50;;;;;;;23.37;33.13;101695.31;4983692;28;100726;-62
2020/12/02 10:39:30;;;;;;;4.38;3.15;;;;;;;23.37;33.07;101690.00;5006911;28;97347;-63
2020/12/02 10:42:36;;;;;;;3.67;2.70;;;;;;;23.36;33.03;101685.56;4995202;28;96806;-63
2020/12/02 10:45:10;;;;;;;3.08;2.70;;;;;;;23.41;33.24;101681.94;5003307;28;96781;-62
2020/12/02 10:47:52;;;;;;;4.40;3.08;;;;;;;23.40;33.08;101677.50;5000615;28;97523;-62
2020/12/02 10:50:22;;;;;;;3.60;2.70;;;;;;;23.40;32.95;101674.84;4979036;28;99466;-63
2020/12/02 10:52:49;;;;;;;3.38;3.05;;;;;;;23.42;33.23;101681.00;5010965;28;97165;-64
2020/12/02 10:55:16;;;;;;;3.20;2.88;;;;;;;23.40;33.17;101678.38;4979213;28;96955;-63
2020/12/02 10:57:42;;;;;;;3.88;3.03;;;;;;;23.42;32.94;101670.34;5009991;28;114380;-63
2020/12/02 11:00:08;;;;;;;3.25;2.80;;;;;;;23.41;33.06;101665.94;4995049;28;127121;-63
2020/12/02 11:02:33;;;;;;;3.33;2.92;;;;;;;23.41;32.88;101664.16;4995131;28;96672;-63
2020/12/02 11:04:59;;;;;;;3.70;3.20;;;;;;;23.42;32.73;101662.34;5004161;28;107088;-63
2020/12/02 11:07:28;;;;;;;3.13;2.63;;;;;;;23.42;32.71;101659.69;4980770;28;101979;-63
2020/12/02 11:10:15;;;;;;;3.25;2.83;;;;;;;23.40;33.02;101651.75;5004312;28;111859;-63
2020/12/02 11:13:02;;;;;;;3.78;3.25;;;;;;;23.41;32.97;101639.31;4983224;28;96884;-63
2020/12/02 11:15:48;;;;;;;3.80;2.97;;;;;;;23.38;33.14;101638.47;4995947;28;96844;-63
2020/12/02 11:18:32;;;;;;;3.83;3.17;;;;;;;23.41;32.92;101639.31;4994831;28;97667;-63
2020/12/02 11:21:10;;;;;;;4.55;3.28;;;;;;;23.38;33.01;101627.81;4977077;28;97173;-64
2020/12/02 11:23:40;;;;;;;5.38;3.28;;;;;;;23.38;32.87;101625.16;4995208;28;96766;-63
2020/12/02 11:26:25;;;;;;;6.03;3.30;;;;;;;23.36;32.92;101620.81;4995350;28;96909;-63
2020/12/02 11:28:51;;;;;;;6.05;3.65;;;;;;;23.38;33.01;101617.19;4978256;28;97550;-64
2020/12/02 11:31:59;;;;;;;4.68;3.30;;;;;;;23.35;33.19;101614.63;4995420;28;97432;-56
2020/12/02 11:34:47;;;;;;;7.20;3.45;;;;;;;23.37;33.19;101611.91;4981585;28;112908;-62
2020/12/02 11:37:15;;;;;;;6.97;4.47;;;;;;;;;;4993412;28;97012;-62
2020/12/02 11:39:54;;;;;;;10.68;4.60;;;;;;;23.35;33.15;101606.63;4991743;28;97079;-61
2020/12/02 11:42:20;;;;;;;12.00;4.75;;;;;;;;;;4961923;28;100093;-62
2020/12/02 11:45:14;;;;;;;17.70;9.57;;;;;;;23.36;32.78;101599.50;4991964;28;97025;-63